Dearborn, MO

1:20 AM CDT on October 31, 2014 (GMT -0500)
Clinton Estates | Change Station
CLOSE
Current Station
Personal Weather Station
Location: Trimble, MO
Elevation: 975 ft
Nearby Weather Stations
Active Advisory: Freeze Warning

Elev 975 ft 39.47 °N, 94.58 °W | Updated 28 seconds ago

Partly Cloudy
Partly Cloudy
49.2 °F
Feels Like 45 °F
N
10.0
Wind Variable Wind from North
Gusts 15.0 mph

Today
High -- | Low -- °F
--% Chance of Precip.
Yesterday
High -- | Low -- °F
Precip. -- in
7:46 AM 6:18 PM
First Quarter, 52% visible
Pressure 30.22 in
Visibility 10.0 miles
Clouds Scattered Clouds 6500 ft
Windchill 45 °F
Dew Point 42 °F
Humidity 76%
Rainfall 0.00 in
Snow Depth Not available.
UV 0 out of 12
Pollen 2.20 out of 12
Air Quality Not available.
Flu Activity Not available.
METAR KMCI 310553Z 34010KT 10SM SCT065 09/05 A3023 RMK AO2 SLP234 T00940050 10144 20094 401940072 51025 $

More Conditions Fewer Conditions

Pressure 30.22 in
Visibility 10.0 miles
Clouds Scattered Clouds 6500 ft
Windchill 45 °F
Dew Point 42 °F
Humidity 76%
Rainfall 0.00 in
Snow Depth Not available.
UV 0 out of 12
Pollen 2.20 out of 12
Air Quality Not available.
Flu Activity Not available.
METAR KMCI 310553Z 34010KT 10SM SCT065 09/05 A3023 RMK AO2 SLP234 T00940050 10144 20094 401940072 51025 $

More Conditions Fewer Conditions

10-Day Weather Forecast

Almanac

Astronomy

Oct. 31, 2014 Rise Set
Actual Time
Civil Twilight
Nautical Twilight
Astronomical Twilight
Moon
Length of Visible Light
Length of Day
Tomorrow will be .
, % of the Moon is Illuminated

Today's Extremes

State Highs State Lows

Community

WunderPhotos

Upload Photos

1,766,571 photos uploaded!

WunderBlogs® & News

Nearby

Air Quality

  Air Quality AQ Index Pollutant
Not available.

Snow Depth

Station Depth Elevation

Earthquake Activity

City Distance Mag. Time & Date
Minimum magnitude displayed is 2.5.

Coastal Water Temperatures

Place Temperature

Nearby Weather Stations